Terminal Aerodrome Forecast
Issued by NWS

Home | Current Version | Previous Version | Text Only | Print | Product List | Glossary On
Versions: 1 2 3 4 5 6 7 8 9 10 11 12 13 14 15 16 17 18 19 20
000
FTUS41 KBGM 300200 AAA
TAFELM
TAF AMD
KELM 300257Z 3003/3024 16012KT P6SM -SHSN OVC018 WS020/18045KT
     FM300400 16012KT 3SM -SN OVC018
     FM301000 29010G20KT 4SM -SHSN OVC025=

USA.gov is the U.S. government's official web portal to all federal, state and local government web resources and services.